Time;durP1;ratioP1;P1;durP2;ratioP2;P2;SDS_P1;SDS_P2;PMS_P1;PMS_P2;Temp;Humidity;BMP_temperature;BMP_pressure;BME280_temperature;BME280_humidity;BME280_pressure;Samples;Min_cycle;Max_cycle;Signal;HPM_P1;HPM_P2
2023/12/22 00:01:15;;;;;;;4.50;3.00;;;8.90;99.90;;;;;;5084160;28;20181;-66
2023/12/22 00:03:42;;;;;;;3.40;2.93;;;8.90;99.90;;;;;;5072943;28;20186;-67
2023/12/22 00:06:07;;;;;;;4.13;2.93;;;8.90;99.90;;;;;;5072698;28;20458;-60
2023/12/22 00:08:33;;;;;;;3.80;2.70;;;8.90;99.90;;;;;;5088535;28;20447;-66
2023/12/22 00:10:59;;;;;;;2.90;2.80;;;8.80;99.90;;;;;;5092183;28;20629;-67
2023/12/22 00:13:25;;;;;;;3.83;3.50;;;8.70;99.90;;;;;;5090327;28;20216;-66
2023/12/22 00:15:51;;;;;;;4.20;3.20;;;8.70;99.90;;;;;;5091370;28;20498;-66
2023/12/22 00:18:16;;;;;;;6.13;3.30;;;8.70;99.90;;;;;;5091938;28;20180;-66
2023/12/22 00:20:42;;;;;;;7.67;3.10;;;9.00;99.90;;;;;;5091603;28;20173;-66
2023/12/22 00:23:08;;;;;;;4.93;2.90;;;8.70;99.90;;;;;;5090483;28;20209;-61
2023/12/22 00:25:34;;;;;;;4.83;2.80;;;8.60;99.90;;;;;;5089694;28;20205;-67
2023/12/22 00:27:59;;;;;;;5.27;4.27;;;8.60;99.90;;;;;;5076243;28;20648;-66
2023/12/22 00:30:25;;;;;;;4.47;3.13;;;8.60;99.90;;;;;;5087286;28;20260;-66
2023/12/22 00:32:51;;;;;;;5.30;3.10;;;8.60;99.90;;;;;;5090673;28;20184;-66
2023/12/22 00:35:17;;;;;;;8.40;2.80;;;8.70;99.90;;;;;;5087812;28;20186;-65
2023/12/22 00:37:42;;;;;;;4.43;2.83;;;8.70;99.90;;;;;;5102680;28;20213;-66
2023/12/22 00:40:09;;;;;;;5.37;3.13;;;8.70;99.90;;;;;;5097136;28;20191;-66
2023/12/22 00:42:35;;;;;;;10.40;3.50;;;8.70;99.90;;;;;;5110247;28;20616;-66
2023/12/22 00:45:01;;;;;;;4.93;2.73;;;8.70;99.90;;;;;;5092861;28;20468;-66
2023/12/22 00:47:27;;;;;;;7.43;3.37;;;8.60;99.90;;;;;;5073324;28;20407;-66
2023/12/22 00:49:53;;;;;;;5.07;3.10;;;8.60;99.90;;;;;;5091379;28;20459;-66
2023/12/22 00:52:18;;;;;;;8.83;3.33;;;8.60;99.90;;;;;;5084507;28;20929;-66
2023/12/22 00:54:44;;;;;;;4.40;4.00;;;8.60;99.90;;;;;;5083116;28;20180;-66
2023/12/22 00:57:11;;;;;;;7.03;2.80;;;8.60;99.90;;;;;;5073054;28;20177;-62
2023/12/22 00:59:36;;;;;;;7.80;3.33;;;8.60;99.90;;;;;;5087759;28;20249;-66
2023/12/22 01:02:02;;;;;;;6.40;3.20;;;8.60;99.90;;;;;;5077228;28;20918;-66
2023/12/22 01:04:28;;;;;;;4.70;2.60;;;8.60;99.90;;;;;;5071286;28;20173;-66
2023/12/22 01:06:54;;;;;;;3.33;2.70;;;8.60;99.90;;;;;;5081787;28;20174;-66
2023/12/22 01:09:19;;;;;;;5.27;2.83;;;8.70;99.90;;;;;;5083267;28;20203;-66
2023/12/22 01:11:46;;;;;;;6.07;2.83;;;8.60;99.90;;;;;;5093017;28;20174;-66
2023/12/22 01:14:13;;;;;;;3.67;2.87;;;8.70;99.90;;;;;;5084278;28;20580;-61
2023/12/22 01:16:39;;;;;;;3.90;2.37;;;8.70;99.90;;;;;;5092242;28;20397;-66
2023/12/22 01:19:05;;;;;;;4.40;3.03;;;8.70;99.90;;;;;;5077851;28;20507;-66
2023/12/22 01:21:31;;;;;;;6.47;3.03;;;8.70;99.90;;;;;;5088218;28;20527;-66
2023/12/22 01:23:58;;;;;;;8.20;3.10;;;8.70;99.90;;;;;;5090254;28;20200;-66
2023/12/22 01:26:24;;;;;;;3.23;2.40;;;8.70;99.90;;;;;;5089817;28;20422;-66
2023/12/22 01:28:50;;;;;;;5.57;2.60;;;8.70;99.90;;;;;;5087730;28;20561;-66
2023/12/22 01:31:16;;;;;;;6.33;3.07;;;8.70;99.90;;;;;;5082895;28;20458;-63
2023/12/22 01:33:42;;;;;;;5.70;2.97;;;8.70;99.90;;;;;;5083583;28;20198;-66
2023/12/22 01:36:08;;;;;;;4.73;2.70;;;8.60;99.90;;;;;;5095443;28;20166;-66
2023/12/22 01:38:33;;;;;;;4.27;2.50;;;8.70;99.90;;;;;;5078008;28;21012;-65
2023/12/22 01:40:59;;;;;;;6.93;3.13;;;8.70;99.90;;;;;;5113570;28;20657;-66
2023/12/22 01:43:25;;;;;;;3.63;3.10;;;8.70;99.90;;;;;;5095957;28;20216;-66
2023/12/22 01:45:56;;;;;;;4.40;3.00;;;8.70;99.90;;;;;;5108091;28;20234;-66
2023/12/22 01:48:23;;;;;;;6.73;3.13;;;8.70;99.90;;;;;;5078831;28;20937;-66
2023/12/22 01:50:53;;;;;;;4.77;3.10;;;8.70;99.90;;;;;;5108384;28;20430;-66
2023/12/22 01:53:20;;;;;;;8.07;3.60;;;8.80;99.90;;;;;;5088254;28;20766;-66
2023/12/22 01:55:48;;;;;;;7.83;3.07;;;8.80;99.90;;;;;;5092767;28;20414;-67
2023/12/22 01:58:14;;;;;;;3.60;2.40;;;8.80;99.90;;;;;;5095332;28;20418;-61
2023/12/22 02:00:40;;;;;;;3.80;2.87;;;8.80;99.90;;;;;;5083176;28;20781;-67
2023/12/22 02:03:06;;;;;;;4.03;2.50;;;8.90;99.90;;;;;;5076346;28;20178;-66
2023/12/22 02:05:32;;;;;;;4.43;2.70;;;8.90;99.90;;;;;;5074428;28;20422;-66
2023/12/22 02:07:58;;;;;;;2.67;2.47;;;8.80;99.90;;;;;;5075455;28;20492;-67
2023/12/22 02:10:24;;;;;;;2.00;1.90;;;8.90;99.90;;;;;;5091649;28;20501;-66
2023/12/22 02:12:50;;;;;;;2.30;1.93;;;8.80;99.90;;;;;;5106777;28;20475;-66
2023/12/22 02:15:16;;;;;;;2.50;2.20;;;8.80;99.90;;;;;;5095030;28;20519;-60
2023/12/22 02:17:45;;;;;;;4.13;1.80;;;8.70;99.90;;;;;;5094839;28;20453;-66
2023/12/22 02:20:11;;;;;;;2.60;1.80;;;8.60;99.90;;;;;;5095337;28;20184;-66
2023/12/22 02:22:37;;;;;;;1.80;1.70;;;8.60;99.90;;;;;;5086971;28;21116;-66
2023/12/22 02:25:03;;;;;;;2.70;1.80;;;8.60;99.90;;;;;;5085838;28;20546;-67
2023/12/22 02:27:40;;;;;;;3.00;1.80;;;8.50;99.90;;;;;;5081525;28;20583;-66
2023/12/22 02:30:24;;;;;;;3.23;1.90;;;8.50;99.90;;;;;;5084520;28;20445;-66
2023/12/22 02:32:54;;;;;;;2.43;2.17;;;8.50;99.90;;;;;;5091267;28;20432;-65
2023/12/22 02:35:23;;;;;;;1.60;1.60;;;8.60;99.90;;;;;;5074248;28;20938;-65
2023/12/22 02:37:50;;;;;;;2.73;1.73;;;8.50;99.90;;;;;;5074917;28;20790;-65
2023/12/22 02:40:17;;;;;;;2.70;2.00;;;8.50;99.90;;;;;;5078468;28;20789;-61
2023/12/22 02:42:44;;;;;;;2.67;2.10;;;8.40;99.90;;;;;;5073973;28;20481;-65
2023/12/22 02:45:18;;;;;;;3.27;2.30;;;8.40;99.90;;;;;;5080250;28;20433;-66
2023/12/22 02:47:44;;;;;;;2.20;2.10;;;8.40;99.90;;;;;;5092720;28;20414;-65
2023/12/22 02:50:11;;;;;;;3.80;2.27;;;8.40;99.90;;;;;;5094296;28;20941;-65
2023/12/22 02:52:36;;;;;;;2.60;2.40;;;8.30;99.90;;;;;;5092203;28;20746;-66
2023/12/22 02:55:03;;;;;;;3.40;2.20;;;8.30;99.90;;;;;;5092858;28;20942;-67
2023/12/22 02:57:28;;;;;;;3.73;1.90;;;8.40;99.90;;;;;;5092636;28;20207;-64
2023/12/22 02:59:54;;;;;;;5.57;2.07;;;8.40;99.90;;;;;;5074213;28;20451;-65
2023/12/22 03:02:20;;;;;;;1.90;1.80;;;8.40;99.90;;;;;;5080890;28;20176;-59
2023/12/22 03:04:46;;;;;;;4.97;2.43;;;8.30;99.90;;;;;;5082844;28;20641;-67
2023/12/22 03:07:12;;;;;;;2.33;2.13;;;8.20;99.90;;;;;;5074103;28;20181;-66
2023/12/22 03:09:39;;;;;;;5.23;2.20;;;8.30;99.90;;;;;;5091709;28;20454;-67
2023/12/22 03:12:06;;;;;;;2.77;1.90;;;8.20;99.90;;;;;;5077039;28;20415;-67
2023/12/22 03:14:33;;;;;;;3.73;2.10;;;8.20;99.90;;;;;;5072950;28;20462;-67
2023/12/22 03:17:02;;;;;;;4.67;2.30;;;8.20;99.90;;;;;;5073953;28;20777;-67
2023/12/22 03:19:28;;;;;;;4.70;1.90;;;8.20;99.90;;;;;;5073384;28;20422;-66
2023/12/22 03:21:53;;;;;;;2.60;2.07;;;8.30;99.90;;;;;;5082208;28;20948;-67
2023/12/22 03:24:20;;;;;;;4.07;2.20;;;8.40;99.90;;;;;;5079586;28;20621;-61
2023/12/22 03:26:46;;;;;;;2.20;1.90;;;8.50;99.90;;;;;;5093035;28;20185;-67
2023/12/22 03:29:12;;;;;;;2.30;1.67;;;8.50;99.90;;;;;;5092515;28;20446;-67
2023/12/22 03:31:38;;;;;;;2.23;2.03;;;8.50;99.90;;;;;;5078242;28;20420;-67
2023/12/22 03:34:03;;;;;;;3.93;2.50;;;8.50;99.90;;;;;;5073548;28;20173;-67
2023/12/22 03:36:29;;;;;;;3.20;2.20;;;8.50;99.90;;;;;;5072590;28;20237;-66
2023/12/22 03:38:55;;;;;;;4.97;2.73;;;8.50;99.90;;;;;;5090266;28;20190;-64
2023/12/22 03:41:21;;;;;;;7.13;3.00;;;8.50;99.90;;;;;;5073513;28;20541;-61
2023/12/22 03:43:46;;;;;;;2.97;2.70;;;8.60;99.90;;;;;;5080654;28;20592;-68
2023/12/22 03:46:12;;;;;;;5.83;2.53;;;8.60;99.90;;;;;;5083420;28;20183;-67
2023/12/22 03:48:38;;;;;;;4.47;2.90;;;8.60;99.90;;;;;;5072236;28;20237;-66
2023/12/22 03:51:03;;;;;;;4.30;2.70;;;8.60;99.90;;;;;;5073708;28;20210;-67
2023/12/22 03:53:29;;;;;;;4.63;3.53;;;8.60;99.90;;;;;;5085244;28;20183;-66
2023/12/22 03:55:55;;;;;;;4.17;3.87;;;8.70;99.90;;;;;;5075715;28;20182;-66
2023/12/22 03:58:21;;;;;;;4.57;3.70;;;8.60;99.90;;;;;;5089432;28;20643;-61
2023/12/22 04:00:47;;;;;;;7.00;3.60;;;8.50;99.90;;;;;;5091970;28;20182;-66
2023/12/22 04:03:13;;;;;;;6.93;4.30;;;8.60;99.90;;;;;;5082795;28;20419;-65
2023/12/22 04:05:39;;;;;;;6.17;3.67;;;8.60;99.90;;;;;;5079200;28;20416;-66
2023/12/22 04:08:05;;;;;;;4.73;4.03;;;8.70;99.90;;;;;;5076785;28;20507;-66
2023/12/22 04:10:32;;;;;;;4.40;4.00;;;8.60;99.90;;;;;;5094679;28;20183;-66
2023/12/22 04:12:57;;;;;;;7.67;3.60;;;8.70;99.90;;;;;;5096174;28;20497;-66
2023/12/22 04:15:23;;;;;;;3.80;3.60;;;8.70;99.90;;;;;;5091984;28;20547;-61
2023/12/22 04:17:49;;;;;;;3.73;3.43;;;8.70;99.90;;;;;;5076053;28;20181;-66
2023/12/22 04:20:15;;;;;;;4.17;3.20;;;8.60;99.90;;;;;;5086665;28;20192;-67
2023/12/22 04:22:41;;;;;;;4.03;3.60;;;8.50;99.90;;;;;;5091840;28;20427;-66
2023/12/22 04:25:08;;;;;;;10.47;4.50;;;8.70;99.90;;;;;;5092996;28;20503;-67
2023/12/22 04:27:35;;;;;;;5.20;3.80;;;8.60;99.90;;;;;;5090559;28;20414;-68
2023/12/22 04:30:01;;;;;;;4.00;3.40;;;8.50;99.90;;;;;;5091444;28;20455;-68
2023/12/22 04:32:27;;;;;;;3.03;2.83;;;8.50;99.90;;;;;;5080344;28;20828;-64
2023/12/22 04:34:52;;;;;;;2.90;2.70;;;8.30;99.90;;;;;;5091496;28;20842;-68
2023/12/22 04:37:18;;;;;;;2.97;2.80;;;8.00;99.90;;;;;;5091324;28;20537;-67
2023/12/22 04:39:44;;;;;;;3.00;2.90;;;7.80;99.90;;;;;;5104522;28;20183;-68
2023/12/22 04:42:10;;;;;;;2.83;2.73;;;7.70;99.90;;;;;;5086552;28;20544;-68
2023/12/22 04:44:35;;;;;;;3.90;3.17;;;7.60;99.90;;;;;;5087128;28;20176;-67
2023/12/22 04:47:01;;;;;;;3.17;2.70;;;7.50;99.90;;;;;;5092886;28;20197;-67
2023/12/22 04:49:27;;;;;;;2.70;2.60;;;7.50;99.90;;;;;;5089425;28;20196;-63
2023/12/22 04:51:52;;;;;;;2.60;2.40;;;7.50;99.90;;;;;;5092996;28;20183;-67
2023/12/22 04:54:18;;;;;;;4.43;3.00;;;7.50;99.90;;;;;;5072549;28;20173;-65
2023/12/22 04:56:44;;;;;;;6.07;3.87;;;7.50;99.90;;;;;;5072272;28;20226;-66
2023/12/22 04:59:10;;;;;;;3.13;2.90;;;7.60;99.90;;;;;;5078459;28;20517;-65
2023/12/22 05:01:35;;;;;;;2.93;2.70;;;7.50;99.90;;;;;;5071725;28;20620;-64
2023/12/22 05:04:04;;;;;;;2.40;2.30;;;7.50;99.90;;;;;;5081149;28;20176;-64
2023/12/22 05:06:30;;;;;;;2.60;2.40;;;7.40;99.90;;;;;;5087371;28;20213;-63
2023/12/22 05:08:58;;;;;;;2.60;2.60;;;7.40;99.90;;;;;;5090645;28;20493;-64
2023/12/22 05:11:24;;;;;;;3.27;2.97;;;7.50;99.90;;;;;;5092684;28;20181;-63
2023/12/22 05:13:50;;;;;;;3.30;3.00;;;7.40;99.90;;;;;;5092692;28;20410;-62
2023/12/22 05:16:16;;;;;;;3.20;2.93;;;7.50;99.90;;;;;;5092477;28;20438;-63
2023/12/22 05:18:41;;;;;;;2.53;2.37;;;7.60;99.90;;;;;;5091792;28;20169;-62
2023/12/22 05:21:07;;;;;;;2.70;2.47;;;7.60;99.90;;;;;;5092547;28;20179;-63
2023/12/22 05:23:33;;;;;;;2.20;2.10;;;7.60;99.90;;;;;;5120251;28;20233;-62
2023/12/22 05:25:59;;;;;;;2.80;2.33;;;7.70;99.90;;;;;;5109998;28;20267;-63
2023/12/22 05:28:26;;;;;;;3.30;3.00;;;7.70;99.90;;;;;;5092022;28;20313;-59
2023/12/22 05:30:51;;;;;;;2.67;2.47;;;7.70;99.90;;;;;;5092486;28;20421;-63
2023/12/22 05:33:17;;;;;;;2.43;2.23;;;7.80;99.90;;;;;;5090994;28;20410;-63
2023/12/22 05:35:43;;;;;;;6.97;2.50;;;7.80;99.90;;;;;;5091849;28;20226;-63
2023/12/22 05:38:08;;;;;;;3.33;2.00;;;7.90;99.90;;;;;;5095777;28;20316;-63
2023/12/22 05:40:34;;;;;;;2.73;2.47;;;7.90;99.90;;;;;;5112145;28;20316;-62
2023/12/22 05:43:00;;;;;;;6.00;2.70;;;7.90;99.90;;;;;;5090080;28;20664;-63
2023/12/22 05:45:26;;;;;;;2.33;2.23;;;8.00;99.90;;;;;;5070771;28;20640;-63
2023/12/22 05:47:52;;;;;;;2.30;2.00;;;8.00;99.90;;;;;;5071961;28;20219;-62
2023/12/22 05:50:17;;;;;;;1.80;1.70;;;8.00;99.90;;;;;;5072524;28;20455;-62
2023/12/22 05:52:46;;;;;;;4.97;2.33;;;8.00;99.90;;;;;;5091760;28;20172;-63
2023/12/22 05:55:12;;;;;;;4.93;2.47;;;8.10;99.90;;;;;;5092480;28;20218;-63
2023/12/22 05:57:37;;;;;;;3.00;2.37;;;8.10;99.90;;;;;;5091682;28;20414;-62
2023/12/22 06:00:07;;;;;;;2.40;2.20;;;8.10;99.90;;;;;;5090744;28;20407;-62
2023/12/22 06:02:33;;;;;;;5.93;2.47;;;8.10;99.90;;;;;;5080519;28;20259;-63
2023/12/22 06:04:59;;;;;;;2.63;2.37;;;8.30;99.90;;;;;;5092110;28;20452;-62
2023/12/22 06:07:26;;;;;;;5.37;2.33;;;8.30;99.90;;;;;;5092133;28;20427;-63
2023/12/22 06:09:51;;;;;;;3.23;2.30;;;8.20;99.90;;;;;;5103396;28;20602;-62
2023/12/22 06:12:17;;;;;;;4.60;2.50;;;8.20;99.90;;;;;;5110346;28;20402;-64
2023/12/22 06:14:43;;;;;;;2.67;2.47;;;8.20;99.90;;;;;;5111814;28;20678;-67
2023/12/22 06:17:09;;;;;;;2.73;2.50;;;8.10;99.90;;;;;;5099622;28;20467;-67
2023/12/22 06:19:38;;;;;;;2.60;2.00;;;8.20;99.90;;;;;;5093150;28;20224;-68
2023/12/22 06:22:03;;;;;;;3.33;2.40;;;8.20;99.90;;;;;;5092835;28;20169;-68
2023/12/22 06:24:29;;;;;;;2.30;2.10;;;8.10;99.90;;;;;;5091819;28;20468;-74
2023/12/22 06:26:55;;;;;;;3.40;1.97;;;8.20;99.90;;;;;;5093984;28;20425;-68
2023/12/22 06:29:21;;;;;;;3.07;2.07;;;8.20;99.90;;;;;;5074931;28;20216;-67
2023/12/22 06:31:50;;;;;;;3.43;2.43;;;8.20;99.90;;;;;;5080840;28;20189;-68
2023/12/22 06:34:17;;;;;;;2.63;2.43;;;8.10;99.90;;;;;;5074865;28;20264;-68
2023/12/22 06:36:43;;;;;;;2.90;2.30;;;8.20;99.90;;;;;;5083567;28;20501;-67
2023/12/22 06:39:09;;;;;;;5.03;2.90;;;8.10;99.90;;;;;;5096603;28;20422;-67
2023/12/22 06:41:34;;;;;;;4.50;2.70;;;8.20;99.90;;;;;;5112997;28;20451;-67
2023/12/22 06:44:00;;;;;;;5.47;2.83;;;8.10;99.90;;;;;;5110876;28;20469;-68
2023/12/22 06:46:27;;;;;;;6.03;2.80;;;8.10;99.90;;;;;;5093934;28;20177;-67
2023/12/22 06:48:54;;;;;;;5.77;2.80;;;8.20;99.90;;;;;;5074961;28;20443;-67
2023/12/22 06:51:22;;;;;;;3.33;2.90;;;8.20;99.90;;;;;;5073635;28;20429;-68
2023/12/22 06:53:48;;;;;;;3.10;2.80;;;8.20;99.90;;;;;;5073468;28;20451;-68
2023/12/22 06:56:21;;;;;;;6.50;3.07;;;8.30;99.90;;;;;;5090096;28;20402;-68
2023/12/22 06:58:48;;;;;;;3.53;2.87;;;8.20;99.90;;;;;;5074933;28;20845;-67
2023/12/22 07:01:29;;;;;;;2.90;2.70;;;8.30;99.90;;;;;;5078721;28;20415;-68
2023/12/22 07:03:55;;;;;;;3.90;3.03;;;8.30;99.90;;;;;;5073967;28;20911;-67
2023/12/22 07:06:27;;;;;;;4.17;2.70;;;8.30;99.90;;;;;;5094208;28;20906;-67
2023/12/22 07:08:57;;;;;;;5.93;3.50;;;8.40;99.90;;;;;;5108109;28;20469;-67
2023/12/22 07:11:22;;;;;;;5.80;3.40;;;8.40;99.90;;;;;;5088697;28;20429;-67
2023/12/22 07:13:48;;;;;;;4.80;3.10;;;8.40;99.90;;;;;;5101645;28;20424;-68
2023/12/22 07:16:15;;;;;;;5.30;3.30;;;8.50;99.90;;;;;;5092523;28;20224;-68
2023/12/22 07:18:41;;;;;;;7.03;3.83;;;8.60;99.90;;;;;;5093259;28;20667;-68
2023/12/22 07:21:07;;;;;;;4.73;3.50;;;8.60;99.90;;;;;;5094538;28;20399;-68
2023/12/22 07:23:33;;;;;;;5.90;3.13;;;8.70;99.90;;;;;;5087363;28;20166;-61
2023/12/22 07:25:58;;;;;;;5.87;4.30;;;8.70;99.90;;;;;;5111839;27;20464;-65
2023/12/22 07:28:24;;;;;;;5.03;3.30;;;8.70;99.90;;;;;;5094250;28;20418;-68
2023/12/22 07:30:50;;;;;;;4.80;3.60;;;8.80;99.90;;;;;;5086033;28;20177;-68
2023/12/22 07:33:15;;;;;;;4.83;2.90;;;8.80;99.90;;;;;;5075527;28;20182;-68
2023/12/22 07:35:41;;;;;;;5.40;3.40;;;8.90;99.90;;;;;;5085835;28;20536;-67
2023/12/22 07:38:07;;;;;;;5.40;3.80;;;8.90;99.90;;;;;;5085524;28;20177;-68
2023/12/22 07:40:33;;;;;;;6.17;3.70;;;8.90;99.90;;;;;;5108393;28;20181;-64
2023/12/22 07:42:59;;;;;;;3.13;2.60;;;8.90;99.90;;;;;;5107605;28;20514;-67
2023/12/22 07:45:25;;;;;;;6.20;3.63;;;8.90;99.90;;;;;;5114230;28;20177;-68
2023/12/22 07:47:51;;;;;;;5.13;2.73;;;8.90;99.90;;;;;;5113266;28;20475;-67
2023/12/22 07:50:17;;;;;;;7.80;2.97;;;9.00;99.90;;;;;;5098682;28;20296;-67
2023/12/22 07:52:43;;;;;;;5.90;2.90;;;9.00;99.90;;;;;;5105110;28;20476;-67
2023/12/22 07:55:10;;;;;;;5.47;3.70;;;9.10;99.90;;;;;;5092627;28;20422;-69
2023/12/22 07:57:36;;;;;;;6.13;3.30;;;9.00;99.90;;;;;;5093272;28;20411;-65
2023/12/22 08:00:04;;;;;;;176.40;109.83;;;9.00;99.90;;;;;;5078546;28;20502;-66
2023/12/22 08:02:29;;;;;;;695.70;465.07;;;9.10;99.90;;;;;;5090548;28;20423;-66
2023/12/22 08:04:55;;;;;;;21.10;13.20;;;9.10;99.90;;;;;;5073367;28;20428;-65
2023/12/22 08:07:21;;;;;;;5.90;3.90;;;9.10;99.90;;;;;;5073313;28;20174;-67
2023/12/22 08:09:47;;;;;;;5.00;3.73;;;9.10;99.90;;;;;;5072544;28;20594;-65
2023/12/22 08:12:12;;;;;;;9.27;4.00;;;9.10;99.90;;;;;;5087380;28;20435;-65
2023/12/22 08:14:38;;;;;;;6.87;4.07;;;9.10;99.90;;;;;;5071973;28;20221;-65
2023/12/22 08:17:04;;;;;;;6.80;3.97;;;9.20;99.90;;;;;;5080139;28;20232;-65
2023/12/22 08:19:30;;;;;;;6.90;4.40;;;9.10;99.90;;;;;;5087752;28;20197;-64
2023/12/22 08:21:55;;;;;;;4.73;4.27;;;9.00;99.90;;;;;;5077109;28;20177;-66
2023/12/22 08:24:21;;;;;;;4.57;4.00;;;9.10;99.90;;;;;;5077998;28;20528;-69
2023/12/22 08:26:47;;;;;;;7.57;5.13;;;9.10;99.90;;;;;;5072331;28;20260;-64
2023/12/22 08:29:13;;;;;;;7.80;4.10;;;9.10;99.90;;;;;;5074705;28;20451;-65
2023/12/22 08:31:39;;;;;;;7.87;4.27;;;9.10;99.90;;;;;;5075424;28;20428;-64
2023/12/22 08:34:05;;;;;;;10.07;4.40;;;9.10;99.90;;;;;;5073011;28;20941;-65
2023/12/22 08:36:31;;;;;;;11.73;4.97;;;9.10;99.90;;;;;;5072481;28;20222;-65
2023/12/22 08:38:57;;;;;;;63.67;40.37;;;9.00;99.90;;;;;;5088994;28;20333;-64
2023/12/22 08:41:24;;;;;;;9.90;6.40;;;9.10;99.90;;;;;;5072198;28;20948;-62
2023/12/22 08:43:50;;;;;;;18.33;10.93;;;9.10;99.90;;;;;;5086843;28;20418;-62
2023/12/22 08:46:15;;;;;;;12.10;5.03;;;9.10;99.90;;;;;;5091474;28;20743;-62
2023/12/22 08:48:42;;;;;;;7.77;4.37;;;9.10;99.90;;;;;;5087390;28;20660;-62
2023/12/22 08:51:07;;;;;;;12.90;4.07;;;9.10;99.90;;;;;;5091224;28;20629;-61
2023/12/22 08:53:36;;;;;;;14.03;4.80;;;9.20;99.90;;;;;;5092591;28;20495;-65
2023/12/22 08:56:03;;;;;;;7.20;3.70;;;9.10;99.90;;;;;;5091767;28;20169;-61
2023/12/22 08:58:31;;;;;;;5.80;4.27;;;9.20;99.90;;;;;;5084467;28;20420;-62
2023/12/22 09:00:58;;;;;;;14.80;5.90;;;9.20;99.90;;;;;;5103933;28;20649;-61
2023/12/22 09:03:23;;;;;;;14.23;5.40;;;9.20;99.90;;;;;;5072222;28;20495;-61
2023/12/22 09:05:49;;;;;;;43.60;24.47;;;9.30;99.90;;;;;;5071199;28;20170;-60
2023/12/22 09:08:15;;;;;;;19.50;9.40;;;9.40;99.90;;;;;;5089049;28;20434;-65
2023/12/22 09:10:41;;;;;;;16.73;9.10;;;9.40;99.90;;;;;;5071979;28;20331;-64
2023/12/22 09:13:06;;;;;;;10.73;4.90;;;9.50;99.90;;;;;;5072211;28;20572;-61
2023/12/22 09:15:32;;;;;;;10.90;5.00;;;9.60;99.90;;;;;;5072563;28;20218;-61
2023/12/22 09:17:58;;;;;;;12.53;5.20;;;9.60;99.90;;;;;;5072916;28;20284;-61
2023/12/22 09:20:24;;;;;;;9.97;5.70;;;9.70;99.90;;;;;;5072492;28;20179;-61
2023/12/22 09:22:49;;;;;;;13.80;5.87;;;9.60;99.90;;;;;;5071786;28;20404;-62
2023/12/22 09:25:15;;;;;;;12.20;5.13;;;9.60;99.90;;;;;;5083097;28;20265;-62
2023/12/22 09:27:41;;;;;;;11.60;5.83;;;9.60;99.90;;;;;;5088796;28;20185;-63
2023/12/22 09:30:07;;;;;;;11.47;6.03;;;9.60;99.90;;;;;;5110739;28;20454;-62
2023/12/22 09:32:34;;;;;;;10.50;5.50;;;9.70;99.90;;;;;;5110035;28;20513;-62
2023/12/22 09:35:00;;;;;;;13.13;6.60;;;9.80;99.90;;;;;;5109995;28;20763;-61
2023/12/22 09:37:26;;;;;;;10.53;5.33;;;9.70;99.90;;;;;;5112034;28;20431;-62
2023/12/22 09:39:53;;;;;;;21.93;5.40;;;9.70;99.90;;;;;;5106014;28;20465;-61
2023/12/22 09:42:20;;;;;;;9.07;5.23;;;9.80;99.90;;;;;;5092001;28;20420;-62
2023/12/22 09:44:49;;;;;;;8.10;5.20;;;9.70;99.90;;;;;;5089562;28;20433;-62
2023/12/22 09:47:17;;;;;;;12.17;4.87;;;9.60;99.90;;;;;;5073139;28;20454;-62
2023/12/22 09:49:44;;;;;;;7.13;4.43;;;9.60;99.90;;;;;;5089773;28;20554;-63
2023/12/22 09:52:11;;;;;;;6.13;4.17;;;9.60;99.90;;;;;;5091107;28;20424;-62
2023/12/22 09:54:37;;;;;;;7.77;4.33;;;9.50;99.90;;;;;;5103260;28;20402;-62
2023/12/22 09:57:04;;;;;;;9.27;4.30;;;9.50;99.90;;;;;;5115890;28;20544;-62
2023/12/22 09:59:31;;;;;;;6.77;4.60;;;9.60;99.90;;;;;;5100276;28;20426;-62
2023/12/22 10:01:59;;;;;;;3.77;3.47;;;9.60;99.90;;;;;;5075139;28;20425;-63
2023/12/22 10:04:25;;;;;;;8.47;4.53;;;9.70;99.90;;;;;;5075861;28;20406;-62
2023/12/22 10:06:53;;;;;;;7.80;3.97;;;9.60;99.90;;;;;;5075123;28;20417;-62
2023/12/22 10:09:19;;;;;;;6.77;4.43;;;9.60;99.90;;;;;;5091286;28;20236;-62
2023/12/22 10:11:49;;;;;;;5.63;3.60;;;9.60;99.90;;;;;;5075012;28;20411;-62
2023/12/22 10:14:21;;;;;;;7.70;4.33;;;9.50;99.90;;;;;;5082163;28;20446;-62
2023/12/22 10:16:49;;;;;;;5.53;3.77;;;9.40;99.90;;;;;;5094961;28;20391;-62
2023/12/22 10:19:15;;;;;;;4.40;3.30;;;9.40;99.90;;;;;;5095824;28;20423;-63
2023/12/22 10:21:41;;;;;;;8.10;4.47;;;9.30;99.90;;;;;;5116073;28;20503;-62
2023/12/22 10:24:46;;;;;;;8.90;4.13;;;9.30;99.90;;;;;;5115657;28;20440;-66
2023/12/22 10:27:13;;;;;;;3.83;3.37;;;9.40;99.90;;;;;;5085127;28;20420;-62
2023/12/22 10:29:42;;;;;;;4.50;3.47;;;9.40;99.90;;;;;;5107668;27;20495;-62
2023/12/22 10:32:08;;;;;;;6.83;4.17;;;9.40;99.90;;;;;;5088456;28;20416;-61
2023/12/22 10:34:35;;;;;;;6.00;4.43;;;9.40;99.90;;;;;;5098153;28;20436;-65
2023/12/22 10:37:01;;;;;;;6.37;4.23;;;9.50;99.90;;;;;;5093464;28;20957;-68
2023/12/22 10:39:31;;;;;;;6.70;4.80;;;9.60;99.90;;;;;;5083314;28;20446;-66
2023/12/22 10:41:58;;;;;;;9.07;5.40;;;9.60;99.90;;;;;;5088022;28;20428;-66
2023/12/22 10:44:25;;;;;;;6.50;4.90;;;9.60;99.90;;;;;;5087262;28;20459;-67
2023/12/22 10:46:51;;;;;;;4.50;4.03;;;9.50;99.90;;;;;;5094372;28;20554;-67
2023/12/22 10:49:17;;;;;;;6.23;4.63;;;9.60;99.90;;;;;;5094842;28;20448;-67
2023/12/22 10:51:43;;;;;;;57.80;35.13;;;9.60;99.90;;;;;;5093275;28;20423;-67
2023/12/22 10:54:09;;;;;;;19.33;14.47;;;9.60;99.90;;;;;;5094758;28;20274;-67
2023/12/22 10:56:35;;;;;;;5.60;5.10;;;9.70;99.90;;;;;;5076979;28;20937;-67
2023/12/22 10:59:02;;;;;;;6.17;5.00;;;9.60;99.90;;;;;;5092156;28;20195;-67
2023/12/22 11:01:33;;;;;;;6.03;4.77;;;9.60;99.90;;;;;;5093675;28;20502;-67
2023/12/22 11:04:02;;;;;;;5.50;4.90;;;9.70;99.90;;;;;;5092597;28;20412;-68
2023/12/22 11:06:33;;;;;;;8.07;5.80;;;9.60;99.90;;;;;;5094546;28;20403;-67
2023/12/22 11:09:01;;;;;;;5.97;5.37;;;9.60;99.90;;;;;;5094253;28;20445;-68
2023/12/22 11:11:30;;;;;;;6.33;5.73;;;9.60;99.90;;;;;;5101809;28;20901;-68
2023/12/22 11:13:57;;;;;;;7.47;5.40;;;9.60;99.90;;;;;;5077248;28;20592;-66
2023/12/22 11:16:25;;;;;;;9.03;6.60;;;9.70;99.90;;;;;;5074463;28;20552;-68
2023/12/22 11:18:56;;;;;;;6.87;6.33;;;9.60;99.90;;;;;;5072451;28;20549;-68
2023/12/22 11:21:25;;;;;;;6.40;5.80;;;9.60;99.90;;;;;;5075443;28;20511;-67
2023/12/22 11:23:53;;;;;;;5.80;5.30;;;9.60;99.90;;;;;;5072417;28;20403;-64
2023/12/22 11:26:20;;;;;;;8.23;5.87;;;9.60;99.90;;;;;;5074461;28;20771;-67
2023/12/22 11:28:48;;;;;;;5.50;5.10;;;9.60;99.90;;;;;;5074161;28;20460;-66
2023/12/22 11:31:15;;;;;;;157.77;103.03;;;9.50;99.90;;;;;;5086578;28;20510;-67
2023/12/22 11:33:49;;;;;;;42.50;30.20;;;9.50;99.90;;;;;;5077399;28;20417;-67
2023/12/22 11:36:17;;;;;;;6.13;5.60;;;9.40;99.90;;;;;;5090005;28;20755;-66
2023/12/22 11:38:45;;;;;;;5.50;5.00;;;9.50;99.90;;;;;;5091415;28;20456;-66
2023/12/22 11:41:27;;;;;;;4.40;4.00;;;9.50;99.90;;;;;;5104130;28;20489;-66
2023/12/22 11:43:56;;;;;;;3.87;3.67;;;9.60;99.90;;;;;;5072150;28;20431;-66
2023/12/22 11:46:23;;;;;;;3.90;3.70;;;9.50;99.90;;;;;;5072536;28;20500;-64
2023/12/22 11:48:53;;;;;;;5.03;4.73;;;9.50;99.90;;;;;;5073178;28;20455;-67
2023/12/22 11:51:19;;;;;;;3.73;3.53;;;9.50;99.90;;;;;;5089582;28;20399;-63
2023/12/22 11:53:45;;;;;;;3.30;3.10;;;9.60;99.90;;;;;;5085397;28;20419;-65
2023/12/22 11:56:13;;;;;;;4.60;4.30;;;9.60;99.90;;;;;;5091917;28;20509;-67
2023/12/22 11:58:51;;;;;;;4.17;3.87;;;9.50;99.90;;;;;;5089179;28;20470;-65
2023/12/22 12:01:18;;;;;;;3.93;3.70;;;9.50;99.90;;;;;;5080311;28;20418;-65
2023/12/22 12:03:55;;;;;;;4.50;4.10;;;9.50;99.90;;;;;;5088890;28;20447;-66
2023/12/22 12:06:30;;;;;;;4.10;3.80;;;9.50;99.90;;;;;;5082273;28;20440;-66
2023/12/22 12:09:01;;;;;;;3.90;3.70;;;9.50;99.90;;;;;;5092940;28;20454;-68
2023/12/22 12:11:48;;;;;;;3.43;3.23;;;9.50;99.90;;;;;;5102207;28;20435;-63
2023/12/22 12:14:19;;;;;;;228.30;145.50;;;9.60;99.90;;;;;;5113651;28;20454;-64
2023/12/22 12:16:45;;;;;;;31.77;22.30;;;9.60;99.90;;;;;;5113465;28;20388;-62
2023/12/22 12:19:11;;;;;;;4.80;4.50;;;9.60;99.90;;;;;;5107524;28;20437;-63
2023/12/22 12:21:39;;;;;;;4.60;4.33;;;9.60;99.90;;;;;;5116916;27;20494;-61
2023/12/22 12:24:05;;;;;;;4.57;4.23;;;9.70;99.90;;;;;;5074723;28;20177;-61
2023/12/22 12:26:33;;;;;;;3.80;3.60;;;9.80;99.90;;;;;;5084369;28;20424;-63
2023/12/22 12:28:59;;;;;;;4.50;4.20;;;9.80;99.90;;;;;;5073967;28;20505;-62
2023/12/22 12:31:37;;;;;;;3.50;3.40;;;9.80;99.90;;;;;;5072768;28;20779;-64
2023/12/22 12:34:05;;;;;;;3.70;3.50;;;9.70;99.90;;;;;;5088030;28;20410;-62
2023/12/22 12:36:32;;;;;;;3.40;3.30;;;9.80;99.90;;;;;;5082450;28;20857;-62
2023/12/22 12:39:11;;;;;;;3.67;3.50;;;9.80;99.90;;;;;;5112929;28;20479;-62
2023/12/22 12:41:41;;;;;;;3.90;3.60;;;9.80;99.90;;;;;;5113543;28;20398;-62
2023/12/22 12:44:08;;;;;;;3.90;3.70;;;9.80;99.90;;;;;;5111448;28;20404;-62
2023/12/22 12:46:36;;;;;;;4.50;4.20;;;9.80;99.90;;;;;;5090580;28;20737;-63
2023/12/22 12:49:11;;;;;;;4.43;4.23;;;9.80;99.90;;;;;;5112420;28;20461;-62
2023/12/22 12:51:46;;;;;;;4.30;4.10;;;9.80;99.90;;;;;;5106637;28;20409;-62
2023/12/22 12:54:14;;;;;;;4.67;4.37;;;9.90;99.90;;;;;;5083598;28;21046;-62